Portada
METAR-TAF:

Aeropuertos :

Humberside, Inglaterra

latitud: 53-35N, longitud: 000-21W, altitud: 31 m

Observación

El informe se hizo hace 30 minutos, a las 03:20 UTC
Viento 8 kt del norte-noreste
Temperatura 10°C
Humedad 93%
Presión 1015 hPa
Visibilidad 10 km o más

METAR: EGNJ 290320Z AUTO 02008KT 9999 OVC008/// 10/09 Q1015

Hora: 04:50 (03:50 UTC)

Pronóstico

El informe se hizo hace 1 hora y 54 minutos, a las 01:56 UTC
Pronóstico válido del 29 a las 03 UTC al 29 a las 12 UTC
Viento 6 kt del norte-noreste
Visibilidad 10 km o más
Escasas nubes a una altura de 2500 ft
Temporalmente
del 29 a las 03 UTC al 29 a las 09 UTC
Visibilidad: 3000 m
Cielo nuboso a una altura de 300 ft
neblina
Probabilidad 30% :
Temporalmente
del 29 a las 03 UTC al 29 a las 08 UTC
Visibilidad: 0500 m
Cielo nuboso a una altura de 100 ft
niebla

TAF: EGNJ 290156Z 2903/2912 03006KT 9999 FEW025 TEMPO 2903/2909 3000 BR BKN003 PROB30 TEMPO 2903/2908 0500 FG BKN001

METAR-TAF

Observaciones y pronósticos meteorológicos de más de 4000 aeropuertos (mensajes METAR y TAF).

Los puntos amarillos y rojos representan las estaciones disponibles.

Ponga el ratón en el punto deseado para ver el nombre de la estación.

Haga clic para ver las observaciones y los pronósticos meteorológicos.

Para cambiar el mapa : haga clic en los botones verdes con una cruz de color negro para hacer un zoom, en el botón verde con un guión para alejar o en las flechas verdes para mapas adyacentes.


METAR-TAF: